메인 페이지
METAR-TAF:

METAR-TAF

공항 :

멕시코시티 국제공항

멕시코시티, 멕시코

위도: 19-26N, 경도: 099-06W, 고도: 2238m

현재 날씨관측

예보는 43분 전, 06:42시(UTC)에 발표되었습니다.
6kt
온도 18°C
습도 30%
기압 1029 hPa
시정: 16.1km
맑음

METAR: MMMX 210642Z 28006KT 10SM SKC 18/00 A3038 NOSIG RMK HZY

시각: 02:25 (07:25 UTC)

예보

예보는 2 시간 16분 전, 05:09시(UTC)에 발표되었습니다.
예보 대상 시간: 21일 06시부터 22일 12시까지 (UTC)
북북서5kt
시정: 10km
맑음
21일 1700시부터 (UTC)
남서10kt
시정: 10km
고도 25000ft 상공 구름 보통
22일 0300시부터 (UTC)
서북서5kt
시정: 10km
고도 25000ft 상공 구름 보통

TAF: MMMX 210509Z 2106/2212 33005KT P6SM SKC TX28/2121Z TN14/2112Z FM211700 23010KT P6SM SCT250 FM220300 30005KT P6SM SCT250

4,000개 이상의 공항 관측 자료 및 예보 (METAR 및 TAF 보고).

지도상에서 검색 가능한 기상관측소가 노란 점과 빨간 점으로 표시되어 있습니다.

기상관측소 명을 보려면 표시 위로 마우스를 이동하세요.

날씨 관측과 예보를 보려면 클릭하세요.

지도 변경 : 확대하려면 엑스 표시가 있는 녹색 버튼, 축소하려면 빼기 표시가 있는 녹색 버튼, 다음 페이지의 지도를 보려면 녹색 화살표를 클릭하세요.


METAR-TAF: